createdAt,value
2018-08-24T00:00:14.448Z,67.90
2018-08-24T00:02:42.992Z,67.90
2018-08-24T00:05:12.036Z,67.70
2018-08-24T00:07:40.626Z,67.80
2018-08-24T00:10:09.208Z,67.70
2018-08-24T00:12:37.791Z,67.40
2018-08-24T00:15:06.493Z,67.10
2018-08-24T00:17:35.065Z,67.10
2018-08-24T00:20:03.749Z,67.30
2018-08-24T00:22:32.377Z,67.40
2018-08-24T00:25:01.062Z,67.10
2018-08-24T00:27:30.151Z,66.90
2018-08-24T00:29:58.713Z,66.60
2018-08-24T00:32:27.345Z,66.30
2018-08-24T00:34:56.324Z,66.40
2018-08-24T00:37:25.320Z,66.30
2018-08-24T00:39:53.904Z,66.60
2018-08-24T00:42:22.504Z,66.70
2018-08-24T00:44:51.396Z,66.70
2018-08-24T00:47:20.334Z,66.70
2018-08-24T00:49:48.966Z,67.30
2018-08-24T00:52:17.703Z,67.50
2018-08-24T00:54:46.811Z,67.70
2018-08-24T00:57:15.428Z,68.10
2018-08-24T00:59:44.019Z,67.00
2018-08-24T01:02:12.677Z,66.90
2018-08-24T01:04:41.306Z,66.80
2018-08-24T01:07:10.752Z,67.00
2018-08-24T01:09:40.055Z,67.00
2018-08-24T01:12:12.792Z,66.70
2018-08-24T01:14:45.844Z,66.60
2018-08-24T01:17:19.650Z,67.30
2018-08-24T01:19:48.459Z,66.90
2018-08-24T01:22:17.274Z,67.00
2018-08-24T01:24:45.940Z,67.20
2018-08-24T01:27:14.548Z,67.20
2018-08-24T01:29:43.827Z,67.10
2018-08-24T01:32:14.285Z,67.40
2018-08-24T01:34:42.854Z,67.50
2018-08-24T01:37:11.495Z,67.80
2018-08-24T01:39:40.027Z,67.40
2018-08-24T01:42:08.651Z,67.10
2018-08-24T01:44:37.347Z,66.80
2018-08-24T01:47:05.991Z,67.10
2018-08-24T01:49:34.569Z,67.10
2018-08-24T01:52:03.124Z,66.90
2018-08-24T01:54:31.729Z,67.00
2018-08-24T01:57:00.477Z,67.10
2018-08-24T01:59:29.081Z,67.50
2018-08-24T02:01:57.744Z,67.50
2018-08-24T02:04:26.483Z,67.70
2018-08-24T02:06:55.161Z,67.80
2018-08-24T02:09:24.396Z,67.20
2018-08-24T02:11:53.141Z,66.90
2018-08-24T02:14:26.969Z,66.60
2018-08-24T02:16:55.872Z,66.20
2018-08-24T02:19:30.065Z,66.00
2018-08-24T02:22:18.395Z,66.30
2018-08-24T02:24:47.357Z,66.20
2018-08-24T02:27:16.357Z,65.80
2018-08-24T02:29:45.088Z,66.00
2018-08-24T02:32:13.762Z,65.70
2018-08-24T02:34:42.810Z,65.80
2018-08-24T02:37:11.402Z,65.50
2018-08-24T02:39:40.032Z,65.60
2018-08-24T02:42:08.720Z,65.70
2018-08-24T02:44:37.364Z,65.80
2018-08-24T02:47:06.604Z,65.70
2018-08-24T02:49:35.238Z,65.10
2018-08-24T02:52:03.956Z,65.00
2018-08-24T02:54:32.760Z,64.80
2018-08-24T02:57:01.410Z,64.40
2018-08-24T02:59:30.038Z,64.30
2018-08-24T03:01:58.687Z,64.30
2018-08-24T03:04:27.328Z,64.70
2018-08-24T03:06:55.856Z,65.00
2018-08-24T03:09:24.849Z,65.70
2018-08-24T03:11:53.465Z,65.40
2018-08-24T03:14:22.227Z,65.40
2018-08-24T03:17:55.062Z,65.20
2018-08-24T03:20:24.767Z,65.20
2018-08-24T03:22:53.637Z,65.50
2018-08-24T03:25:22.244Z,65.30
2018-08-24T03:27:50.932Z,65.00
2018-08-24T03:30:19.553Z,65.10
2018-08-24T03:32:48.174Z,64.90
2018-08-24T03:35:16.879Z,64.60
2018-08-24T03:37:45.514Z,64.50
2018-08-24T03:40:14.220Z,64.60
2018-08-24T03:42:43.213Z,64.50
2018-08-24T03:45:11.826Z,64.70
2018-08-24T03:47:40.415Z,64.50
2018-08-24T03:50:09.046Z,64.20
2018-08-24T03:52:37.679Z,64.40
2018-08-24T03:55:06.476Z,64.70
2018-08-24T03:57:35.062Z,64.80
2018-08-24T04:00:04.362Z,64.80
2018-08-24T04:02:32.954Z,64.60
2018-08-24T04:05:06.655Z,64.50
2018-08-24T04:07:35.239Z,64.90
2018-08-24T04:10:03.886Z,65.00
2018-08-24T04:12:32.571Z,64.90
2018-08-24T04:15:01.263Z,64.70
2018-08-24T04:17:35.216Z,65.00
2018-08-24T04:20:03.840Z,64.80
2018-08-24T04:22:32.527Z,64.90
2018-08-24T04:25:01.311Z,65.10
2018-08-24T04:27:29.879Z,65.20
2018-08-24T04:29:58.534Z,65.00
2018-08-24T04:32:27.172Z,65.40
2018-08-24T04:34:55.857Z,65.40
2018-08-24T04:37:24.472Z,65.70
2018-08-24T04:39:53.641Z,65.50
2018-08-24T04:42:22.257Z,65.30
2018-08-24T04:44:51.170Z,65.10
2018-08-24T04:47:19.789Z,65.50
2018-08-24T04:49:48.519Z,65.30
2018-08-24T04:52:17.129Z,65.30
2018-08-24T04:54:45.915Z,65.30
2018-08-24T04:57:14.493Z,65.50
2018-08-24T04:59:43.163Z,65.60
2018-08-24T05:02:12.016Z,65.60
2018-08-24T05:04:40.879Z,65.40
2018-08-24T05:07:09.790Z,65.70
2018-08-24T05:09:38.374Z,65.50
2018-08-24T05:12:07.398Z,65.80
2018-08-24T05:14:36.314Z,65.70
2018-08-24T05:17:05.502Z,65.60
2018-08-24T05:19:34.092Z,65.80
2018-08-24T05:22:02.662Z,65.60
2018-08-24T05:24:31.350Z,65.30
2018-08-24T05:26:59.896Z,65.00
2018-08-24T05:29:28.503Z,65.40
2018-08-24T05:31:57.452Z,65.90
2018-08-24T05:34:26.106Z,66.20
2018-08-24T05:36:54.814Z,67.20
2018-08-24T05:39:23.430Z,68.90
2018-08-24T05:41:52.063Z,68.80
2018-08-24T05:44:20.662Z,69.20
2018-08-24T05:46:49.300Z,69.40
2018-08-24T05:49:18.863Z,69.20
2018-08-24T05:51:47.530Z,69.90
2018-08-24T05:54:16.222Z,69.90
2018-08-24T05:56:45.190Z,70.00
2018-08-24T05:59:14.996Z,69.50
2018-08-24T06:01:44.058Z,69.40
2018-08-24T06:04:13.541Z,69.10
2018-08-24T06:06:42.352Z,69.50
2018-08-24T06:09:14.103Z,70.30
2018-08-24T06:11:44.240Z,69.50
2018-08-24T06:14:14.211Z,69.40
2018-08-24T06:16:48.377Z,69.70
2018-08-24T06:19:17.442Z,69.60
2018-08-24T06:21:46.214Z,69.80
2018-08-24T06:24:15.449Z,69.70
2018-08-24T06:26:51.119Z,69.20
2018-08-24T06:29:22.672Z,69.70
2018-08-24T06:31:51.375Z,70.60
2018-08-24T06:34:21.099Z,70.70
2018-08-24T06:36:50.038Z,70.20
2018-08-24T06:39:18.702Z,69.90
2018-08-24T06:41:47.432Z,70.10
2018-08-24T06:44:16.016Z,69.90
2018-08-24T06:46:44.624Z,70.00
2018-08-24T06:49:13.436Z,69.60
2018-08-24T06:51:42.135Z,69.60
2018-08-24T06:54:10.759Z,68.60
2018-08-24T06:56:39.495Z,69.30
2018-08-24T06:59:08.283Z,69.70
2018-08-24T07:01:36.870Z,70.10
2018-08-24T07:04:05.533Z,70.20
2018-08-24T07:06:34.292Z,69.70
2018-08-24T07:09:03.132Z,69.30
2018-08-24T07:11:31.779Z,68.70
2018-08-24T07:14:00.841Z,68.70
2018-08-24T07:16:29.469Z,68.50
2018-08-24T07:18:58.157Z,68.10
2018-08-24T07:21:26.942Z,67.20
2018-08-24T07:23:55.559Z,67.80
2018-08-24T07:26:25.154Z,67.60
2018-08-24T07:28:53.872Z,67.90
2018-08-24T07:31:22.774Z,68.30
2018-08-24T07:33:51.446Z,68.20
2018-08-24T07:36:20.036Z,67.60
2018-08-24T07:38:49.078Z,67.40
2018-08-24T07:41:17.654Z,67.70
2018-08-24T07:43:46.333Z,66.80
2018-08-24T07:46:15.101Z,66.80
2018-08-24T07:48:43.816Z,66.50
2018-08-24T07:51:12.944Z,67.00
2018-08-24T07:53:41.611Z,66.40
2018-08-24T07:56:10.278Z,65.70
2018-08-24T07:58:39.447Z,64.80
2018-08-24T08:01:08.336Z,64.90
2018-08-24T08:03:37.091Z,64.90
2018-08-24T08:06:06.065Z,64.60
2018-08-24T08:08:35.215Z,64.50
2018-08-24T08:11:03.903Z,64.10
2018-08-24T08:13:32.613Z,64.60
2018-08-24T08:16:01.732Z,64.70
2018-08-24T08:18:30.352Z,64.40
2018-08-24T08:20:59.080Z,64.80
2018-08-24T08:23:27.867Z,64.10
2018-08-24T08:25:56.900Z,63.60
2018-08-24T08:28:25.540Z,62.20
2018-08-24T08:30:54.294Z,61.10
2018-08-24T08:33:22.964Z,61.60
2018-08-24T08:35:52.100Z,62.00
2018-08-24T08:38:20.748Z,61.80
2018-08-24T08:40:49.940Z,61.40
2018-08-24T08:43:18.679Z,61.20
2018-08-24T08:45:47.443Z,61.70
2018-08-24T08:48:16.670Z,60.70
2018-08-24T08:50:45.312Z,60.50
2018-08-24T08:53:13.885Z,60.10
2018-08-24T08:55:42.621Z,59.60
2018-08-24T08:58:11.316Z,59.70
2018-08-24T09:00:39.972Z,59.30
2018-08-24T09:03:08.611Z,59.20
2018-08-24T09:05:37.264Z,58.80
2018-08-24T09:08:06.087Z,58.20
2018-08-24T09:10:34.802Z,58.00
2018-08-24T09:13:03.735Z,57.90
2018-08-24T09:15:32.404Z,58.10
2018-08-24T09:18:06.324Z,58.40
2018-08-24T09:20:40.276Z,58.90
2018-08-24T09:23:14.255Z,58.80
2018-08-24T09:25:48.414Z,58.80
2018-08-24T09:28:23.089Z,58.40
2018-08-24T09:30:56.211Z,57.80
2018-08-24T09:33:25.031Z,57.70
2018-08-24T09:36:02.972Z,59.90
2018-08-24T09:38:32.646Z,62.00
2018-08-24T09:41:01.634Z,62.30
2018-08-24T09:43:35.373Z,62.30
2018-08-24T09:46:04.324Z,63.00
2018-08-24T09:48:38.336Z,63.30
2018-08-24T09:51:12.413Z,63.40
2018-08-24T09:53:46.289Z,64.30
2018-08-24T09:56:14.919Z,66.10
2018-08-24T09:58:43.875Z,67.70
2018-08-24T10:02:16.943Z,69.60
2018-08-24T10:04:51.060Z,70.20
2018-08-24T10:07:25.089Z,70.30
2018-08-24T10:09:53.670Z,70.50
2018-08-24T10:12:22.256Z,71.00
2018-08-24T10:14:50.899Z,70.80
2018-08-24T10:17:23.798Z,70.60
2018-08-24T10:19:52.364Z,70.10
2018-08-24T10:22:20.948Z,69.60
2018-08-24T10:24:49.859Z,69.20
2018-08-24T10:27:18.526Z,69.80
2018-08-24T10:29:47.347Z,69.00
2018-08-24T10:32:16.021Z,69.10
2018-08-24T10:34:44.883Z,68.60
2018-08-24T10:37:14.194Z,68.50
2018-08-24T10:39:43.049Z,68.70
2018-08-24T10:42:11.613Z,69.20
2018-08-24T10:44:40.663Z,69.70
2018-08-24T10:47:09.389Z,68.60
2018-08-24T10:49:39.838Z,68.40
2018-08-24T10:52:08.496Z,68.80
2018-08-24T10:54:37.116Z,68.70
2018-08-24T10:57:05.990Z,69.10
2018-08-24T10:59:34.506Z,68.80
2018-08-24T11:02:03.418Z,69.00
2018-08-24T11:04:32.285Z,68.70
2018-08-24T11:07:01.135Z,68.70
2018-08-24T11:09:29.705Z,67.80
2018-08-24T11:11:58.417Z,67.90
2018-08-24T11:14:27.262Z,67.50
2018-08-24T11:16:55.962Z,67.40
2018-08-24T11:19:24.494Z,68.20
2018-08-24T11:21:53.531Z,69.10
2018-08-24T11:24:22.403Z,69.30
2018-08-24T11:26:51.408Z,66.40
2018-08-24T11:29:20.898Z,66.60
2018-08-24T11:31:49.450Z,65.90
2018-08-24T11:34:18.188Z,64.20
2018-08-24T11:36:46.876Z,65.20
2018-08-24T11:39:15.637Z,65.10
2018-08-24T11:41:44.365Z,65.50
2018-08-24T11:44:12.913Z,63.80
2018-08-24T11:46:41.683Z,62.60
2018-08-24T11:49:10.342Z,62.60
2018-08-24T11:51:39.042Z,63.00
2018-08-24T11:54:08.464Z,61.60
2018-08-24T11:56:37.260Z,59.90
2018-08-24T11:59:05.864Z,57.10
2018-08-24T12:01:34.731Z,56.90
2018-08-24T12:04:04.009Z,56.90
2018-08-24T12:06:32.659Z,57.70
2018-08-24T12:09:01.327Z,58.30
2018-08-24T12:11:30.235Z,59.10
2018-08-24T12:13:59.014Z,59.70
2018-08-24T12:16:27.635Z,61.50
2018-08-24T12:18:56.302Z,62.40
2018-08-24T12:21:25.598Z,61.80
2018-08-24T12:23:54.324Z,62.30
2018-08-24T12:26:23.152Z,62.80
2018-08-24T12:28:51.752Z,64.80
2018-08-24T12:31:20.489Z,65.70
2018-08-24T12:33:49.280Z,66.30
2018-08-24T12:36:18.053Z,65.80
2018-08-24T12:38:46.709Z,66.00
2018-08-24T12:41:16.083Z,65.70
2018-08-24T12:43:44.763Z,65.90
2018-08-24T12:46:13.685Z,65.00
2018-08-24T12:48:42.657Z,65.30
2018-08-24T12:51:11.448Z,65.70
2018-08-24T12:53:40.095Z,65.50
2018-08-24T12:56:14.065Z,64.70
2018-08-24T12:58:42.661Z,64.50
2018-08-24T13:01:11.275Z,65.00
2018-08-24T13:03:40.175Z,65.20
2018-08-24T13:06:23.088Z,64.20
2018-08-24T13:08:51.752Z,63.10
2018-08-24T13:11:20.402Z,62.80
2018-08-24T13:13:49.149Z,63.20
2018-08-24T13:16:18.077Z,63.80
2018-08-24T13:18:46.696Z,62.30
2018-08-24T13:21:15.422Z,63.80
2018-08-24T13:23:44.255Z,62.80
2018-08-24T13:26:13.117Z,63.20
2018-08-24T13:28:41.866Z,63.20
2018-08-24T13:31:10.547Z,63.50
2018-08-24T13:33:39.172Z,64.10
2018-08-24T13:36:07.948Z,64.80
2018-08-24T13:38:36.572Z,65.30
2018-08-24T13:41:05.650Z,66.10
2018-08-24T13:43:34.370Z,65.70
2018-08-24T13:46:03.176Z,66.70
2018-08-24T13:48:32.006Z,65.90
2018-08-24T13:51:00.760Z,65.30
2018-08-24T13:53:29.536Z,65.70
2018-08-24T13:55:58.400Z,65.30
2018-08-24T13:58:27.665Z,65.30
2018-08-24T14:00:56.373Z,65.30
2018-08-24T14:03:25.056Z,66.10
2018-08-24T14:05:54.107Z,65.60
2018-08-24T14:08:22.741Z,65.10
2018-08-24T14:10:51.387Z,64.60
2018-08-24T14:13:20.115Z,64.20
2018-08-24T14:15:49.605Z,63.90
2018-08-24T14:18:18.571Z,63.80
2018-08-24T14:20:47.324Z,64.20
2018-08-24T14:23:15.964Z,64.10
2018-08-24T14:25:44.964Z,64.60
2018-08-24T14:28:13.573Z,64.10
2018-08-24T14:30:42.134Z,65.20
2018-08-24T14:33:10.890Z,64.60
2018-08-24T14:35:39.679Z,65.20
2018-08-24T14:38:08.457Z,65.10
2018-08-24T14:40:37.104Z,64.00
2018-08-24T14:43:05.976Z,63.90
2018-08-24T14:45:34.967Z,64.30
2018-08-24T14:48:03.871Z,64.50
2018-08-24T14:50:33.571Z,64.30
2018-08-24T14:53:02.639Z,62.80
2018-08-24T14:55:31.779Z,62.30
2018-08-24T14:58:00.568Z,61.60
2018-08-24T15:00:29.153Z,60.70
2018-08-24T15:02:57.819Z,60.80
2018-08-24T15:05:26.493Z,61.30
2018-08-24T15:07:55.360Z,61.20
2018-08-24T15:10:24.190Z,61.40
2018-08-24T15:12:52.945Z,61.30
2018-08-24T15:15:21.774Z,62.00
2018-08-24T15:17:50.352Z,61.20
2018-08-24T15:20:18.938Z,59.00
2018-08-24T15:22:47.740Z,59.20
2018-08-24T15:25:16.585Z,58.60
2018-08-24T15:27:45.535Z,58.80
2018-08-24T15:30:14.235Z,58.00
2018-08-24T15:32:57.428Z,57.90
2018-08-24T15:35:26.064Z,57.30
2018-08-24T15:37:54.874Z,56.80
2018-08-24T15:40:23.694Z,56.90
2018-08-24T15:42:52.440Z,57.60
2018-08-24T15:45:21.198Z,58.60
2018-08-24T15:47:49.879Z,58.70
2018-08-24T15:50:18.869Z,58.20
2018-08-24T15:52:47.638Z,57.90
2018-08-24T15:55:16.294Z,57.80
2018-08-24T15:57:45.006Z,57.80
2018-08-24T16:00:13.685Z,57.70
2018-08-24T16:02:42.708Z,57.80
2018-08-24T16:05:11.392Z,57.80
2018-08-24T16:07:40.273Z,57.50
2018-08-24T16:10:09.700Z,57.60
2018-08-24T16:12:38.780Z,57.00
2018-08-24T16:15:08.342Z,56.90
2018-08-24T16:17:37.288Z,57.00
2018-08-24T16:20:06.147Z,57.60
2018-08-24T16:22:34.774Z,56.90
2018-08-24T16:25:03.501Z,57.00
2018-08-24T16:27:34.746Z,55.10
2018-08-24T16:30:03.477Z,53.80
2018-08-24T16:32:32.107Z,53.70
2018-08-24T16:35:00.609Z,53.90
2018-08-24T16:37:29.598Z,54.60
2018-08-24T16:39:58.229Z,54.20
2018-08-24T16:42:26.891Z,54.30
2018-08-24T16:44:56.734Z,54.30
2018-08-24T16:47:25.468Z,53.70
2018-08-24T16:49:54.170Z,54.20
2018-08-24T16:52:22.850Z,53.80
2018-08-24T16:54:51.552Z,53.60
2018-08-24T16:57:20.153Z,53.30
2018-08-24T16:59:48.853Z,53.40
2018-08-24T17:02:18.034Z,53.80
2018-08-24T17:04:46.674Z,54.10
2018-08-24T17:07:15.767Z,54.40
2018-08-24T17:09:44.484Z,54.10
2018-08-24T17:12:13.223Z,54.40
2018-08-24T17:14:41.859Z,54.40
2018-08-24T17:17:10.776Z,54.70
2018-08-24T17:19:39.395Z,54.70
2018-08-24T17:22:07.941Z,54.30
2018-08-24T17:24:36.533Z,54.50
2018-08-24T17:34:04.175Z,54.40
2018-08-24T17:36:32.798Z,56.30
2018-08-24T17:39:01.488Z,56.30
2018-08-24T17:41:30.119Z,56.00
2018-08-24T17:43:58.644Z,55.60
2018-08-24T17:46:27.575Z,55.70
2018-08-24T17:48:56.186Z,55.60
2018-08-24T17:51:24.867Z,55.60
2018-08-24T17:53:53.504Z,55.90
2018-08-24T17:56:22.296Z,56.00
2018-08-24T17:58:51.017Z,56.00
2018-08-24T18:01:19.583Z,55.90
2018-08-24T18:03:48.719Z,55.80
2018-08-24T18:06:17.411Z,56.00
2018-08-24T18:08:46.013Z,56.00
2018-08-24T18:11:14.752Z,56.10
2018-08-24T18:13:43.319Z,56.50
2018-08-24T18:16:11.988Z,55.90
2018-08-24T18:18:40.591Z,56.30
2018-08-24T18:21:09.793Z,56.50
2018-08-24T18:23:38.528Z,57.00
2018-08-24T18:26:07.832Z,57.00
2018-08-24T18:28:36.719Z,57.00
2018-08-24T18:31:06.072Z,57.10
2018-08-24T18:33:34.823Z,57.10
2018-08-24T18:36:03.781Z,57.20
2018-08-24T18:38:32.493Z,57.30
2018-08-24T18:41:01.148Z,57.00
2018-08-24T18:43:29.753Z,56.70
2018-08-24T18:45:58.403Z,56.90
2018-08-24T18:48:27.166Z,57.00
2018-08-24T18:50:55.768Z,57.00
2018-08-24T18:53:24.704Z,57.60
2018-08-24T18:55:53.486Z,57.00
2018-08-24T18:58:22.108Z,56.70
2018-08-24T19:00:50.834Z,56.90
2018-08-24T19:03:19.460Z,56.90
2018-08-24T19:05:48.079Z,56.90
2018-08-24T19:08:16.959Z,57.00
2018-08-24T19:10:50.843Z,57.10
2018-08-24T19:13:19.395Z,57.10
2018-08-24T19:15:48.582Z,57.50
2018-08-24T19:18:22.592Z,57.70
2018-08-24T19:20:56.343Z,57.90
2018-08-24T19:23:24.982Z,58.20
2018-08-24T19:25:53.639Z,57.90
2018-08-24T19:28:27.575Z,57.50
2018-08-24T19:30:56.500Z,57.40
2018-08-24T19:33:25.063Z,57.40
2018-08-24T19:35:53.890Z,57.70
2018-08-24T19:38:22.753Z,57.50
2018-08-24T19:40:56.858Z,57.80
2018-08-24T19:43:25.520Z,57.80
2018-08-24T19:45:54.132Z,57.90
2018-08-24T19:48:28.125Z,58.20
2018-08-24T19:50:56.799Z,58.20
2018-08-24T19:53:25.456Z,58.30
2018-08-24T19:59:10.186Z,58.50
2018-08-24T20:01:38.826Z,58.40
2018-08-24T20:04:08.735Z,58.40
2018-08-24T20:06:42.571Z,58.60
2018-08-24T20:09:17.116Z,58.60
2018-08-24T20:11:49.530Z,58.30
2018-08-24T20:14:23.305Z,58.80
2018-08-24T20:16:57.252Z,58.40
2018-08-24T20:19:26.248Z,58.30
2018-08-24T20:21:54.851Z,58.30
2018-08-24T20:24:23.543Z,58.10
2018-08-24T20:26:52.205Z,57.90
2018-08-24T20:29:21.205Z,58.30
2018-08-24T20:31:49.847Z,58.50
2018-08-24T20:34:18.610Z,58.40
2018-08-24T20:36:47.346Z,58.50
2018-08-24T20:39:15.996Z,58.30
2018-08-24T20:41:44.840Z,58.40
2018-08-24T20:44:13.460Z,58.20
2018-08-24T20:46:42.096Z,58.10
2018-08-24T20:49:11.059Z,58.10
2018-08-24T20:51:39.654Z,58.10
2018-08-24T20:54:08.209Z,58.50
2018-08-24T20:56:36.858Z,58.70
2018-08-24T20:59:06.807Z,59.00
2018-08-24T21:01:35.356Z,58.60
2018-08-24T21:04:04.099Z,58.70
2018-08-24T21:06:32.723Z,58.50
2018-08-24T21:09:01.448Z,58.70
2018-08-24T21:11:30.081Z,59.10
2018-08-24T21:13:58.639Z,59.10
2018-08-24T21:16:27.308Z,58.70
2018-08-24T21:18:56.344Z,58.50
2018-08-24T21:21:24.907Z,58.40
2018-08-24T21:23:53.593Z,58.30
2018-08-24T21:26:22.092Z,58.30
2018-08-24T21:28:50.905Z,58.30
2018-08-24T21:31:19.838Z,58.10
2018-08-24T21:33:48.482Z,57.90
2018-08-24T21:36:17.020Z,58.00
2018-08-24T21:38:45.650Z,57.90
2018-08-24T21:41:14.234Z,57.90
2018-08-24T21:43:43.203Z,58.00
2018-08-24T21:46:12.256Z,58.10
2018-08-24T21:48:41.016Z,58.20
2018-08-24T21:51:09.796Z,58.30
2018-08-24T21:53:38.380Z,58.50
2018-08-24T21:56:07.421Z,58.60
2018-08-24T21:58:36.004Z,58.50
2018-08-24T22:01:06.335Z,58.70
2018-08-24T22:03:39.114Z,58.90
2018-08-24T22:06:09.338Z,58.60
2018-08-24T22:08:39.544Z,58.80
2018-08-24T22:11:09.607Z,58.60
2018-08-24T22:13:39.556Z,58.60
2018-08-24T22:16:09.494Z,58.60
2018-08-24T22:18:39.282Z,58.60
2018-08-24T22:21:08.837Z,58.90
2018-08-24T22:23:38.490Z,59.00
2018-08-24T22:26:09.624Z,59.00
2018-08-24T22:28:39.692Z,58.90
2018-08-24T22:31:10.025Z,59.00
2018-08-24T22:33:39.738Z,58.90
2018-08-24T22:36:08.818Z,58.80
2018-08-24T22:38:38.293Z,59.20
2018-08-24T22:41:08.127Z,59.30
2018-08-24T22:43:39.606Z,59.20
2018-08-24T22:46:09.318Z,58.90
2018-08-24T22:48:38.848Z,59.00
2018-08-24T22:51:08.898Z,59.30
2018-08-24T22:53:39.383Z,59.30
2018-08-24T22:56:08.361Z,59.10
2018-08-24T22:58:39.201Z,58.70
2018-08-24T23:01:07.893Z,59.20
2018-08-24T23:03:36.579Z,59.40
2018-08-24T23:06:05.192Z,59.50
2018-08-24T23:08:33.792Z,60.30
2018-08-24T23:11:02.424Z,60.40
2018-08-24T23:13:31.302Z,60.10
2018-08-24T23:15:59.929Z,60.80
2018-08-24T23:18:28.459Z,61.60
2018-08-24T23:20:57.099Z,62.10
2018-08-24T23:23:25.691Z,62.10
2018-08-24T23:25:54.212Z,61.70
2018-08-24T23:28:22.930Z,62.40
2018-08-24T23:30:51.499Z,62.60
2018-08-24T23:33:20.124Z,62.60
2018-08-24T23:35:48.736Z,62.10
2018-08-24T23:38:17.420Z,62.30
2018-08-24T23:40:46.118Z,62.50
2018-08-24T23:43:14.879Z,62.30
2018-08-24T23:45:43.739Z,61.90
2018-08-24T23:48:12.312Z,61.50
2018-08-24T23:50:40.957Z,61.40
2018-08-24T23:53:09.566Z,61.70
2018-08-24T23:55:52.694Z,62.10
2018-08-24T23:58:21.341Z,62.70
